Time;durP1;ratioP1;P1;durP2;ratioP2;P2;SDS_P1;SDS_P2;PMS_P1;PMS_P2;Temp;Humidity;BMP_temperature;BMP_pressure;BME280_temperature;BME280_humidity;BME280_pressure;Samples;Min_cycle;Max_cycle;Signal;HPM_P1;HPM_P2
2023/07/15 00:00:13;;;;;;;;;;;24.40;60.50;;;;;;5083468;28;19943;-39
2023/07/15 00:02:40;;;;;;;;;;;24.40;60.60;;;;;;5083507;28;19908;-38
2023/07/15 00:05:10;;;;;;;;;;;24.30;60.60;;;;;;5083643;28;19912;-42
2023/07/15 00:07:36;;;;;;;;;;;24.30;61.10;;;;;;5066102;28;19931;-39
2023/07/15 00:10:02;;;;;;;;;;;24.30;60.20;;;;;;5084930;28;19952;-39
2023/07/15 00:12:28;;;;;;;;;;;24.30;60.20;;;;;;5084862;28;19908;-38
2023/07/15 00:14:54;;;;;;;;;;;24.30;60.50;;;;;;5078940;28;19915;-39
2023/07/15 00:17:20;;;;;;;;;;;24.30;60.30;;;;;;5084496;28;19964;-39
2023/07/15 00:19:46;;;;;;;;;;;24.30;61.40;;;;;;5084526;28;19977;-38
2023/07/15 00:22:13;;;;;;;;;;;24.30;61.50;;;;;;5082702;28;19915;-38
2023/07/15 00:24:39;;;;;;;;;;;24.20;60.80;;;;;;5084288;28;20014;-38
2023/07/15 00:27:05;;;;;;;;;;;24.20;61.80;;;;;;5080074;28;19912;-38
2023/07/15 00:29:31;;;;;;;;;;;24.20;61.30;;;;;;5084348;28;19908;-38
2023/07/15 00:31:57;;;;;;;;;;;24.20;62.40;;;;;;5084317;28;19920;-37
2023/07/15 00:34:23;;;;;;;;;;;24.20;62.00;;;;;;5084609;28;19911;-38
2023/07/15 00:36:49;;;;;;;;;;;24.20;61.20;;;;;;5084385;28;19919;-37
2023/07/15 00:39:15;;;;;;;;;;;24.10;60.70;;;;;;5084397;28;19905;-38
2023/07/15 00:41:41;;;;;;;;;;;24.10;60.30;;;;;;5084328;28;19920;-38
2023/07/15 00:44:14;;;;;;;;;;;24.10;60.00;;;;;;5083918;28;19912;-38
2023/07/15 00:46:45;;;;;;;;;;;24.10;60.10;;;;;;5083966;28;19915;-37
2023/07/15 00:49:27;;;;;;;;;;;24.10;60.10;;;;;;5084135;28;19912;-38
2023/07/15 00:52:00;;;;;;;;;;;24.10;60.00;;;;;;5083933;28;19915;-38
2023/07/15 00:54:25;;;;;;;;;;;24.00;59.60;;;;;;5083892;28;19908;-38
2023/07/15 00:56:51;;;;;;;;;;;24.00;59.70;;;;;;5081978;28;19912;-38
2023/07/15 00:59:17;;;;;;;;;;;24.00;59.20;;;;;;5083643;28;19915;-38
2023/07/15 01:01:44;;;;;;;;;;;24.00;59.60;;;;;;5083940;28;19943;-37
2023/07/15 01:04:09;;;;;;;;;;;24.00;59.70;;;;;;5084134;28;19931;-38
2023/07/15 01:06:35;;;;;;;;;;;23.90;59.90;;;;;;5083878;28;19912;-38
2023/07/15 01:09:08;;;;;;;;;;;23.90;59.80;;;;;;5083798;28;19928;-38
2023/07/15 01:11:34;;;;;;;;;;;23.90;59.70;;;;;;5083374;28;19912;-38
2023/07/15 01:14:00;;;;;;;;;;;23.90;60.10;;;;;;5066000;28;19967;-38
2023/07/15 01:16:27;;;;;;;;;;;23.80;60.60;;;;;;5083591;28;19920;-38
2023/07/15 01:18:54;;;;;;;;;;;23.80;60.20;;;;;;5083152;28;19916;-38
2023/07/15 01:21:20;;;;;;;;;;;23.80;59.60;;;;;;5083742;28;19916;-38
2023/07/15 01:23:46;;;;;;;;;;;23.80;60.00;;;;;;5083523;28;19919;-38
2023/07/15 01:26:11;;;;;;;;;;;23.80;59.30;;;;;;5083665;28;19908;-38
2023/07/15 01:28:37;;;;;;;;;;;23.70;59.40;;;;;;5082720;28;19935;-38
2023/07/15 01:31:04;;;;;;;;;;;23.70;59.40;;;;;;5083658;28;19908;-39
2023/07/15 01:33:31;;;;;;;;;;;23.70;59.20;;;;;;5083319;28;19913;-38
2023/07/15 01:35:56;;;;;;;;;;;23.70;59.10;;;;;;5081593;28;19919;-38
2023/07/15 01:38:22;;;;;;;;;;;23.60;58.90;;;;;;5082760;28;19912;-38
2023/07/15 01:40:48;;;;;;;;;;;23.60;59.10;;;;;;5082677;28;19928;-38
2023/07/15 01:43:14;;;;;;;;;;;23.60;58.90;;;;;;5083367;28;19955;-38
2023/07/15 01:45:40;;;;;;;;;;;23.60;59.60;;;;;;5082832;28;19948;-39
2023/07/15 01:48:07;;;;;;;;;;;23.60;62.80;;;;;;5081637;28;19931;-38
2023/07/15 01:50:34;;;;;;;;;;;23.60;64.80;;;;;;5082580;28;20368;-38
2023/07/15 01:52:59;;;;;;;;;;;23.50;65.00;;;;;;5081489;28;19908;-38
2023/07/15 01:55:25;;;;;;;;;;;23.50;65.10;;;;;;5082055;28;19918;-38
2023/07/15 01:57:52;;;;;;;;;;;23.50;65.40;;;;;;5083084;28;19912;-38
2023/07/15 02:00:20;;;;;;;;;;;23.50;65.60;;;;;;5082580;28;19927;-38
2023/07/15 02:02:46;;;;;;;;;;;23.50;65.90;;;;;;5080037;28;19912;-38
2023/07/15 02:05:12;;;;;;;;;;;23.50;66.10;;;;;;5074593;28;19935;-39
2023/07/15 02:07:38;;;;;;;;;;;23.50;66.30;;;;;;5079867;28;19916;-38
2023/07/15 02:10:04;;;;;;;;;;;23.50;66.50;;;;;;5076165;28;19957;-39
2023/07/15 02:12:30;;;;;;;;;;;23.50;66.70;;;;;;5083077;28;19938;-40
2023/07/15 02:14:56;;;;;;;;;;;23.50;66.90;;;;;;5082506;28;19920;-38
2023/07/15 02:17:22;;;;;;;;;;;23.60;67.10;;;;;;5082097;28;19916;-38
2023/07/15 02:19:49;;;;;;;;;;;23.60;67.30;;;;;;5082066;28;19916;-38
2023/07/15 02:22:15;;;;;;;;;;;23.60;67.40;;;;;;5079035;28;19928;-38
2023/07/15 02:24:41;;;;;;;;;;;23.60;67.60;;;;;;5078138;28;20377;-39
2023/07/15 02:27:07;;;;;;;;;;;23.60;67.70;;;;;;5082733;28;19917;-39
2023/07/15 02:29:32;;;;;;;;;;;23.60;67.90;;;;;;5081880;28;19908;-39
2023/07/15 02:31:58;;;;;;;;;;;23.60;68.10;;;;;;5082941;28;19935;-39
2023/07/15 02:34:24;;;;;;;;;;;23.70;68.20;;;;;;5082076;28;19908;-39
2023/07/15 02:36:50;;;;;;;;;;;23.70;68.30;;;;;;5082370;28;19919;-39
2023/07/15 02:39:16;;;;;;;;;;;23.70;68.50;;;;;;5082628;28;19912;-38
2023/07/15 02:41:43;;;;;;;;;;;23.70;68.50;;;;;;5081715;28;19963;-39
2023/07/15 02:44:08;;;;;;;;;;;23.70;68.60;;;;;;5082632;28;19914;-39
2023/07/15 02:46:34;;;;;;;;;;;23.70;68.70;;;;;;5082023;28;19963;-38
2023/07/15 02:49:00;;;;;;;;;;;23.70;68.80;;;;;;5082740;28;19919;-39
2023/07/15 02:51:26;;;;;;;;;;;23.80;68.90;;;;;;5082238;28;20392;-38
2023/07/15 02:53:52;;;;;;;;;;;23.70;68.80;;;;;;5082288;28;19912;-38
2023/07/15 02:56:18;;;;;;;;;;;23.80;69.10;;;;;;5082208;28;19966;-39
2023/07/15 02:58:43;;;;;;;;;;;23.80;69.10;;;;;;5082129;28;19999;-39
2023/07/15 03:01:09;;;;;;;;;;;23.80;70.00;;;;;;5078336;28;19935;-39
2023/07/15 03:03:38;;;;;;;;;;;23.80;69.30;;;;;;5082303;28;20055;-38
2023/07/15 03:06:04;;;;;;;;;;;23.80;69.30;;;;;;5081115;28;20326;-39
2023/07/15 03:08:30;;;;;;;;;;;23.80;69.50;;;;;;5082024;28;19972;-39
2023/07/15 03:10:56;;;;;;;;;;;23.90;69.60;;;;;;5081898;28;20018;-39
2023/07/15 03:13:25;;;;;;;;;;;23.90;69.60;;;;;;5082246;28;19912;-39
2023/07/15 03:15:52;;;;;;;;;;;23.90;69.60;;;;;;5082212;28;19912;-38
2023/07/15 03:18:18;;;;;;;;;;;23.90;69.70;;;;;;5082426;28;19955;-39
2023/07/15 03:20:43;;;;;;;;;;;23.90;69.80;;;;;;5082740;28;19928;-38
2023/07/15 03:23:09;;;;;;;;;;;23.90;69.80;;;;;;5086217;28;19912;-39
2023/07/15 03:25:35;;;;;;;;;;;23.90;69.80;;;;;;5085371;28;19927;-39
2023/07/15 03:28:01;;;;;;;;;;;24.00;69.90;;;;;;5082192;28;19913;-38
2023/07/15 03:30:27;;;;;;;;;;;24.00;69.90;;;;;;5081967;28;19915;-39
2023/07/15 03:32:56;;;;;;;;;;;24.00;70.00;;;;;;5078110;28;19919;-39
2023/07/15 03:35:22;;;;;;;;;;;24.00;70.00;;;;;;5085735;28;19982;-38
2023/07/15 03:37:48;;;;;;;;;;;24.00;70.00;;;;;;5085353;28;20378;-39
2023/07/15 03:40:14;;;;;;;;;;;24.00;70.10;;;;;;5085200;28;19916;-39
2023/07/15 03:42:43;;;;;;;;;;;24.00;70.20;;;;;;5083329;28;19919;-38
2023/07/15 03:45:09;;;;;;;;;;;24.00;70.10;;;;;;5075630;28;20284;-39
2023/07/15 03:47:35;;;;;;;;;;;24.00;70.20;;;;;;5085331;28;19914;-39
2023/07/15 03:50:02;;;;;;;;;;;24.00;70.20;;;;;;5085460;28;20387;-39
2023/07/15 03:52:28;;;;;;;;;;;24.00;70.20;;;;;;5084972;28;19952;-42
2023/07/15 03:54:54;;;;;;;;;;;24.00;70.20;;;;;;5085077;28;19908;-39
2023/07/15 03:57:20;;;;;;;;;;;24.10;70.30;;;;;;5085271;28;19915;-39
2023/07/15 03:59:46;;;;;;;;;;;24.10;70.40;;;;;;5077690;28;20164;-39
2023/07/15 04:02:11;;;;;;;;;;;24.10;71.10;;;;;;5077456;28;19916;-39
2023/07/15 04:04:37;;;;;;;;;;;24.10;70.40;;;;;;5085038;28;19919;-39
2023/07/15 04:07:03;;;;;;;;;;;24.10;70.30;;;;;;5084685;28;20573;-39
2023/07/15 04:09:29;;;;;;;;;;;24.10;70.30;;;;;;5084008;28;19923;-39
2023/07/15 04:11:56;;;;;;;;;;;24.10;70.30;;;;;;5076946;28;19912;-39
2023/07/15 04:14:21;;;;;;;;;;;24.10;70.30;;;;;;5084946;28;19913;-39
2023/07/15 04:16:48;;;;;;;;;;;24.10;70.30;;;;;;5084839;28;20011;-38
2023/07/15 04:19:13;;;;;;;;;;;24.10;70.20;;;;;;5081044;28;19915;-38
2023/07/15 04:21:39;;;;;;;;;;;24.10;70.20;;;;;;5084454;28;19920;-39
2023/07/15 04:24:05;;;;;;;;;;;24.10;70.20;;;;;;5084347;28;19924;-38
2023/07/15 04:26:31;;;;;;;;;;;24.10;70.30;;;;;;5081932;28;19924;-39
2023/07/15 04:28:57;;;;;;;;;;;24.10;70.40;;;;;;5084826;28;19983;-39
2023/07/15 04:31:23;;;;;;;;;;;24.10;70.40;;;;;;5084285;28;19974;-38
2023/07/15 04:33:50;;;;;;;;;;;24.20;70.50;;;;;;5084471;28;19908;-39
2023/07/15 04:36:17;;;;;;;;;;;24.20;70.60;;;;;;5084239;28;20425;-38
2023/07/15 04:38:43;;;;;;;;;;;24.20;70.60;;;;;;5083125;28;19919;-39
2023/07/15 04:41:09;;;;;;;;;;;24.20;70.70;;;;;;5084279;28;19987;-39
2023/07/15 04:43:34;;;;;;;;;;;24.20;70.70;;;;;;5084252;28;19908;-38
2023/07/15 04:46:01;;;;;;;;;;;24.20;70.80;;;;;;5084387;28;19939;-39
2023/07/15 04:48:27;;;;;;;;;;;24.20;70.70;;;;;;5066344;28;20641;-39
2023/07/15 04:50:52;;;;;;;;;;;24.20;70.70;;;;;;5084401;28;19940;-42
2023/07/15 04:53:18;;;;;;;;;;;24.20;70.50;;;;;;5084089;28;20074;-38
2023/07/15 04:55:45;;;;;;;;;;;24.20;70.50;;;;;;5083713;28;19932;-40
2023/07/15 04:58:11;;;;;;;;;;;24.20;70.40;;;;;;5079134;28;19970;-38
2023/07/15 05:00:37;;;;;;;;;;;24.20;70.30;;;;;;5081928;28;19998;-39
2023/07/15 05:03:05;;;;;;;;;;;24.20;70.50;;;;;;5083920;28;19920;-39
2023/07/15 05:05:31;;;;;;;;;;;24.20;70.00;;;;;;5083865;28;19912;-39
2023/07/15 05:07:59;;;;;;;;;;;24.20;70.00;;;;;;5083091;28;19942;-39
2023/07/15 05:10:25;;;;;;;;;;;24.20;70.20;;;;;;5083383;28;19912;-38
2023/07/15 05:12:51;;;;;;;;;;;24.20;70.20;;;;;;5083830;28;19915;-38
2023/07/15 05:15:17;;;;;;;;;;;24.20;70.40;;;;;;5083687;28;19918;-38
2023/07/15 05:17:44;;;;;;;;;;;24.30;70.70;;;;;;5083140;28;19912;-39
2023/07/15 05:20:10;;;;;;;;;;;24.30;70.70;;;;;;5084060;28;19924;-38
2023/07/15 05:22:36;;;;;;;;;;;24.20;70.80;;;;;;5083122;28;19971;-38
2023/07/15 05:25:02;;;;;;;;;;;24.30;70.90;;;;;;5083430;28;19916;-38
2023/07/15 05:27:28;;;;;;;;;;;24.20;71.00;;;;;;5083088;28;19912;-39
2023/07/15 05:29:54;;;;;;;;;;;24.30;71.00;;;;;;5075905;28;19968;-39
2023/07/15 05:32:20;;;;;;;;;;;24.30;71.00;;;;;;5071887;28;19916;-38
2023/07/15 05:34:46;;;;;;;;;;;24.30;70.90;;;;;;5070918;28;19919;-38
2023/07/15 05:37:11;;;;;;;;;;;24.20;70.60;;;;;;5067688;28;19916;-38
2023/07/15 05:39:37;;;;;;;;;;;24.30;70.50;;;;;;5070598;28;19912;-38
2023/07/15 05:42:03;;;;;;;;;;;24.30;70.50;;;;;;5064867;28;19967;-39
2023/07/15 05:44:30;;;;;;;;;;;24.30;70.30;;;;;;5070578;28;19919;-39
2023/07/15 05:46:55;;;;;;;;;;;24.30;70.10;;;;;;5071028;28;19918;-38
2023/07/15 05:49:21;;;;;;;;;;;24.30;70.10;;;;;;5073628;28;19991;-39
2023/07/15 05:51:47;;;;;;;;;;;24.30;70.10;;;;;;5069944;28;19919;-39
2023/07/15 05:54:13;;;;;;;;;;;24.30;70.20;;;;;;5067993;28;19912;-38
2023/07/15 05:56:39;;;;;;;;;;;24.30;70.60;;;;;;5070566;28;19916;-38
2023/07/15 05:59:05;;;;;;;;;;;24.30;70.70;;;;;;5070243;28;19908;-38
2023/07/15 06:01:30;;;;;;;;;;;24.30;71.30;;;;;;5077764;28;19920;-39
2023/07/15 06:03:56;;;;;;;;;;;24.30;71.30;;;;;;5082626;28;19916;-39
2023/07/15 06:06:22;;;;;;;;;;;24.30;71.60;;;;;;5082382;28;19955;-39
2023/07/15 06:08:48;;;;;;;;;;;24.30;71.50;;;;;;5082514;28;19921;-39
2023/07/15 06:11:16;;;;;;;;;;;24.20;71.60;;;;;;5080326;28;19936;-39
2023/07/15 06:13:41;;;;;;;;;;;24.30;71.60;;;;;;5074511;28;19908;-39
2023/07/15 06:16:07;;;;;;;;;;;24.30;71.60;;;;;;5080293;28;19919;-39
2023/07/15 06:18:33;;;;;;;;;;;24.30;71.60;;;;;;5082729;28;19918;-39
2023/07/15 06:20:59;;;;;;;;;;;24.30;71.20;;;;;;5082473;28;19924;-38
2023/07/15 06:23:25;;;;;;;;;;;24.30;71.00;;;;;;5078417;28;19988;-38
2023/07/15 06:25:51;;;;;;;;;;;24.30;70.90;;;;;;5082536;28;19912;-38
2023/07/15 06:28:17;;;;;;;;;;;24.30;70.90;;;;;;5076204;28;19919;-39
2023/07/15 06:30:44;;;;;;;;;;;24.30;70.60;;;;;;5081284;28;19919;-38
2023/07/15 06:33:10;;;;;;;;;;;24.30;70.60;;;;;;5082313;28;19912;-38
2023/07/15 06:35:36;;;;;;;;;;;24.30;70.60;;;;;;5081937;28;19946;-39
2023/07/15 06:38:02;;;;;;;;;;;24.30;70.50;;;;;;5064611;28;19915;-38
2023/07/15 06:40:28;;;;;;;;;;;24.30;70.80;;;;;;5081889;28;20054;-39
2023/07/15 06:42:54;;;;;;;;;;;24.30;71.30;;;;;;5074520;28;19912;-38
2023/07/15 06:45:22;;;;;;;;;;;24.30;71.40;;;;;;5081995;28;19908;-39
2023/07/15 06:47:48;;;;;;;;;;;24.30;71.50;;;;;;5082514;28;19908;-38
2023/07/15 06:50:14;;;;;;;;;;;24.30;71.70;;;;;;5082545;28;19908;-38
2023/07/15 06:52:40;;;;;;;;;;;24.30;71.90;;;;;;5082220;28;19912;-39
2023/07/15 06:55:06;;;;;;;;;;;24.30;71.80;;;;;;5082438;28;19920;-39
2023/07/15 06:57:32;;;;;;;;;;;24.20;71.90;;;;;;5086188;28;19993;-38
2023/07/15 06:59:57;;;;;;;;;;;24.20;71.80;;;;;;5086408;28;20280;-38
2023/07/15 07:02:23;;;;;;;;;;;24.20;71.80;;;;;;5086449;28;19912;-38
2023/07/15 07:04:49;;;;;;;;;;;24.20;71.40;;;;;;5085893;28;19919;-39
2023/07/15 07:07:15;;;;;;;;;;;24.20;71.20;;;;;;5085745;28;19987;-38
2023/07/15 07:09:41;;;;;;;;;;;24.20;71.00;;;;;;5085681;28;20372;-38
2023/07/15 07:12:07;;;;;;;;;;;24.20;70.90;;;;;;5086415;28;19923;-38
2023/07/15 07:14:33;;;;;;;;;;;24.20;70.80;;;;;;5085602;28;19908;-39
2023/07/15 07:16:59;;;;;;;;;;;24.20;70.70;;;;;;5085705;28;20414;-39
2023/07/15 07:19:25;;;;;;;;;;;24.20;70.70;;;;;;5086089;28;19912;-39
2023/07/15 07:21:51;;;;;;;;;;;24.20;70.70;;;;;;5086184;28;19982;-38
2023/07/15 07:24:17;;;;;;;;;;;24.20;70.50;;;;;;5085492;28;19923;-38
2023/07/15 07:26:42;;;;;;;;;;;24.20;70.90;;;;;;5085566;28;19912;-39
2023/07/15 07:29:08;;;;;;;;;;;24.20;71.20;;;;;;5085882;28;19912;-39
2023/07/15 07:31:34;;;;;;;;;;;24.20;71.50;;;;;;5081332;28;20288;-39
2023/07/15 07:34:00;;;;;;;;;;;24.20;71.70;;;;;;5084169;28;19927;-38
2023/07/15 07:36:26;;;;;;;;;;;24.20;71.50;;;;;;5084918;28;19920;-38
2023/07/15 07:38:52;;;;;;;;;;;24.20;71.70;;;;;;5077720;28;19912;-38
2023/07/15 07:41:18;;;;;;;;;;;24.20;71.70;;;;;;5085470;28;19920;-38
2023/07/15 07:43:44;;;;;;;;;;;24.20;71.70;;;;;;5074895;28;19916;-38
2023/07/15 07:46:12;;;;;;;;;;;24.20;71.80;;;;;;5079896;28;20439;-38
2023/07/15 07:48:38;;;;;;;;;;;24.20;71.80;;;;;;5085537;28;19908;-39
2023/07/15 07:51:04;;;;;;;;;;;24.20;71.60;;;;;;5085432;28;20587;-39
2023/07/15 07:53:30;;;;;;;;;;;24.20;71.40;;;;;;5085174;28;19919;-38
2023/07/15 07:55:56;;;;;;;;;;;24.20;71.20;;;;;;5077429;28;19908;-39
2023/07/15 07:58:22;;;;;;;;;;;24.20;71.30;;;;;;5085749;28;19931;-38
2023/07/15 08:00:48;;;;;;;;;;;24.20;71.20;;;;;;5084744;28;19923;-38
2023/07/15 08:03:14;;;;;;;;;;;24.20;71.20;;;;;;5083656;28;20399;-39
2023/07/15 08:05:43;;;;;;;;;;;24.20;71.20;;;;;;5084489;28;19912;-38
2023/07/15 08:08:10;;;;;;;;;;;24.20;71.20;;;;;;5084250;28;19992;-38
2023/07/15 08:10:36;;;;;;;;;;;24.20;71.20;;;;;;5058530;28;19919;-39
2023/07/15 08:13:03;;;;;;;;;;;24.20;71.30;;;;;;5085076;28;19908;-39
2023/07/15 08:15:29;;;;;;;;;;;24.20;71.80;;;;;;5084169;28;19909;-38
2023/07/15 08:17:55;;;;;;;;;;;24.20;71.90;;;;;;5085040;28;20007;-38
2023/07/15 08:20:21;;;;;;;;;;;24.10;71.80;;;;;;5080466;28;20701;-39
2023/07/15 08:22:47;;;;;;;;;;;24.20;71.90;;;;;;5076996;28;20627;-39
2023/07/15 08:25:13;;;;;;;;;;;24.10;71.80;;;;;;5085061;28;19912;-38
2023/07/15 08:27:39;;;;;;;;;;;24.20;71.90;;;;;;5083772;28;19908;-38
2023/07/15 08:30:05;;;;;;;;;;;24.10;71.90;;;;;;5077946;28;19914;-39
2023/07/15 08:32:31;;;;;;;;;;;24.10;72.00;;;;;;5081765;28;19920;-39
2023/07/15 08:34:58;;;;;;;;;;;24.10;71.90;;;;;;5082414;28;19913;-38
2023/07/15 08:37:24;;;;;;;;;;;24.10;71.80;;;;;;5084235;28;19908;-38
2023/07/15 08:39:49;;;;;;;;;;;24.10;71.70;;;;;;5083907;28;19930;-38
2023/07/15 08:42:15;;;;;;;;;;;24.10;71.60;;;;;;5084720;28;19916;-38
2023/07/15 08:44:41;;;;;;;;;;;24.10;71.50;;;;;;5066074;28;19909;-38
2023/07/15 08:47:07;;;;;;;;;;;24.10;71.60;;;;;;5084816;28;19922;-39
2023/07/15 08:49:33;;;;;;;;;;;24.10;71.50;;;;;;5083977;28;19920;-38
2023/07/15 08:51:59;;;;;;;;;;;24.10;71.50;;;;;;5084231;28;19912;-38
2023/07/15 08:54:25;;;;;;;;;;;24.10;71.50;;;;;;5083932;28;19920;-38
2023/07/15 08:56:51;;;;;;;;;;;24.10;71.50;;;;;;5084106;28;19951;-39
2023/07/15 08:59:18;;;;;;;;;;;24.10;71.70;;;;;;5077066;28;19916;-38
2023/07/15 09:01:44;;;;;;;;;;;24.10;71.80;;;;;;5083666;28;19917;-38
2023/07/15 09:04:10;;;;;;;;;;;24.10;72.00;;;;;;5083646;28;19912;-39
2023/07/15 09:06:36;;;;;;;;;;;24.10;72.00;;;;;;5082553;28;20424;-38
2023/07/15 09:09:02;;;;;;;;;;;24.10;72.00;;;;;;5062492;28;20297;-39
2023/07/15 09:11:37;;;;;;;;;;;24.10;72.00;;;;;;5063561;28;19913;-39
2023/07/15 09:14:11;;;;;;;;;;;24.10;72.10;;;;;;5057456;28;19909;-38
2023/07/15 09:16:40;;;;;;;;;;;24.10;72.30;;;;;;5063748;28;20007;-38
2023/07/15 09:19:27;;;;;;;;;;;24.10;72.20;;;;;;5062808;28;19913;-39
2023/07/15 09:22:19;;;;;;;;;;;24.10;72.00;;;;;;5062135;28;20031;-38
2023/07/15 09:24:45;;;;;;;;;;;24.10;72.00;;;;;;5061796;28;19932;-38
2023/07/15 09:27:11;;;;;;;;;;;24.10;72.00;;;;;;5061057;28;19909;-38
2023/07/15 09:29:37;;;;;;;;;;;24.10;71.90;;;;;;5063444;28;19917;-38
2023/07/15 09:32:03;;;;;;;;;;;24.10;71.80;;;;;;5063542;28;19912;-38
2023/07/15 09:34:29;;;;;;;;;;;24.10;71.80;;;;;;5062664;28;19916;-38
2023/07/15 09:36:55;;;;;;;;;;;24.10;71.80;;;;;;5062017;28;19934;-38
2023/07/15 09:39:22;;;;;;;;;;;24.10;71.80;;;;;;5063536;28;19913;-38
2023/07/15 09:42:08;;;;;;;;;;;24.10;71.70;;;;;;5063183;28;19920;-38
2023/07/15 09:44:41;;;;;;;;;;;24.10;71.90;;;;;;5062742;28;19913;-38
2023/07/15 09:47:07;;;;;;;;;;;24.10;72.00;;;;;;5063291;28;19921;-38
2023/07/15 09:49:33;;;;;;;;;;;24.10;72.10;;;;;;5069664;28;20019;-39
2023/07/15 09:51:59;;;;;;;;;;;24.10;72.20;;;;;;5063524;28;19954;-39
2023/07/15 09:54:26;;;;;;;;;;;24.10;72.20;;;;;;5062928;28;19935;-38
2023/07/15 09:56:52;;;;;;;;;;;24.10;72.20;;;;;;5062720;28;19935;-39
2023/07/15 09:59:19;;;;;;;;;;;24.10;72.20;;;;;;5063097;28;19913;-38
2023/07/15 10:01:47;;;;;;;;;;;24.00;72.10;;;;;;5059757;28;19929;-38
2023/07/15 10:04:19;;;;;;;;;;;24.00;72.10;;;;;;5063161;28;19913;-38
2023/07/15 10:06:45;;;;;;;;;;;24.00;72.20;;;;;;5060713;28;19938;-37
2023/07/15 10:09:11;;;;;;;;;;;24.00;72.20;;;;;;5060810;28;19920;-38
2023/07/15 10:11:36;;;;;;;;;;;24.00;72.10;;;;;;5062790;28;19917;-38
2023/07/15 10:14:04;;;;;;;;;;;24.00;72.00;;;;;;5062762;28;19920;-38
2023/07/15 10:16:33;;;;;;;;;;;24.00;72.00;;;;;;5060536;28;19909;-38
2023/07/15 10:19:01;;;;;;;;;;;24.00;71.90;;;;;;5055267;28;19908;-38
2023/07/15 10:21:27;;;;;;;;;;;24.00;71.90;;;;;;5061075;28;19928;-38
2023/07/15 10:24:06;;;;;;;;;;;24.00;71.90;;;;;;5061961;28;19913;-38
2023/07/15 10:26:32;;;;;;;;;;;24.00;71.90;;;;;;5062038;28;19992;-38
2023/07/15 10:28:58;;;;;;;;;;;24.00;71.90;;;;;;5062366;28;19912;-39
2023/07/15 10:31:24;;;;;;;;;;;24.00;72.10;;;;;;5062853;28;19970;-38
2023/07/15 10:33:54;;;;;;;;;;;24.00;72.10;;;;;;5062576;28;20044;-38
2023/07/15 10:36:38;;;;;;;;;;;24.00;72.20;;;;;;5058756;28;19909;-38
2023/07/15 10:39:10;;;;;;;;;;;24.00;72.30;;;;;;5056194;28;19919;-38
2023/07/15 10:41:46;;;;;;;;;;;24.00;72.30;;;;;;5062230;28;19942;-37
2023/07/15 10:44:22;;;;;;;;;;;24.00;72.50;;;;;;5062561;28;19920;-38
2023/07/15 10:46:50;;;;;;;;;;;24.00;72.50;;;;;;5062008;28;19913;-39
2023/07/15 10:49:17;;;;;;;;;;;24.00;72.50;;;;;;5062692;28;20308;-38
2023/07/15 10:51:44;;;;;;;;;;;24.00;72.40;;;;;;5062310;28;19913;-38
2023/07/15 10:54:10;;;;;;;;;;;24.00;72.40;;;;;;5062434;28;19913;-38
2023/07/15 10:56:36;;;;;;;;;;;24.00;72.30;;;;;;5061826;28;19967;-38
2023/07/15 10:59:02;;;;;;;;;;;24.00;72.30;;;;;;5062541;28;19916;-39
2023/07/15 11:01:28;;;;;;;;;;;24.00;72.20;;;;;;5062060;28;20007;-38
2023/07/15 11:03:53;;;;;;;;;;;24.00;72.20;;;;;;5062004;28;19959;-38
2023/07/15 11:06:19;;;;;;;;;;;24.00;72.20;;;;;;5060215;28;19909;-38
2023/07/15 11:09:14;;;;;;;;;;;24.00;72.20;;;;;;5000709;28;19981;-38
2023/07/15 11:11:40;;;;;;;;;;;24.00;72.30;;;;;;5000725;28;19920;-38
2023/07/15 11:14:17;;;;;;;;;;;23.90;72.20;;;;;;5000776;28;19949;-39
2023/07/15 11:16:43;;;;;;;;;;;23.90;72.20;;;;;;5009345;28;19919;-38
2023/07/15 11:19:12;;;;;;;;;;;23.90;72.30;;;;;;5018368;28;19916;-38
2023/07/15 11:21:38;;;;;;;;;;;23.90;72.40;;;;;;5017252;28;19917;-39
2023/07/15 11:24:04;;;;;;;;;;;23.90;72.40;;;;;;5010888;28;19957;-38
2023/07/15 11:26:30;;;;;;;;;;;23.90;72.40;;;;;;5007334;28;20004;-39
2023/07/15 11:28:56;;;;;;;;;;;23.90;72.50;;;;;;5011093;28;19909;-38
2023/07/15 11:31:22;;;;;;;;;;;23.90;72.50;;;;;;5004926;28;19914;-38
2023/07/15 11:33:55;;;;;;;;;;;23.90;72.50;;;;;;5010138;28;20328;-38
2023/07/15 11:36:21;;;;;;;;;;;23.90;72.60;;;;;;5011252;28;19913;-39
2023/07/15 11:38:47;;;;;;;;;;;23.90;72.40;;;;;;5010413;28;20059;-41
2023/07/15 11:41:13;;;;;;;;;;;23.90;73.20;;;;;;5018648;28;19921;-38
2023/07/15 11:43:39;;;;;;;;;;;23.90;72.30;;;;;;5020815;28;19909;-38
2023/07/15 11:46:05;;;;;;;;;;;23.90;72.30;;;;;;5038344;28;19908;-38
2023/07/15 11:48:31;;;;;;;;;;;23.90;72.30;;;;;;5065294;28;19977;-38
2023/07/15 11:50:57;;;;;;;;;;;23.90;72.40;;;;;;5065619;28;19915;-39
2023/07/15 11:53:26;;;;;;;;;;;23.90;72.30;;;;;;5065481;28;19915;-38
2023/07/15 11:55:52;;;;;;;;;;;23.90;72.30;;;;;;5065202;28;19975;-39
2023/07/15 11:58:37;;;;;;;;;;;23.90;72.30;;;;;;5065177;28;19912;-38
2023/07/15 12:01:03;;;;;;;;;;;23.90;72.30;;;;;;5063442;28;19920;-38
2023/07/15 12:03:29;;;;;;;;;;;23.90;72.50;;;;;;5063417;28;19943;-38
2023/07/15 12:05:55;;;;;;;;;;;23.90;72.60;;;;;;5065022;28;19912;-39
2023/07/15 12:08:21;;;;;;;;;;;23.90;72.70;;;;;;5077575;28;19938;-38
2023/07/15 12:10:50;;;;;;;;;;;23.90;72.60;;;;;;5084724;28;19970;-38
2023/07/15 12:13:16;;;;;;;;;;;23.90;72.70;;;;;;5084830;28;19923;-39
2023/07/15 12:15:42;;;;;;;;;;;23.80;72.70;;;;;;5083588;28;19908;-38
2023/07/15 12:18:08;;;;;;;;;;;23.80;72.90;;;;;;5078723;28;19912;-39
2023/07/15 12:20:33;;;;;;;;;;;23.80;72.70;;;;;;5084081;28;20675;-39
2023/07/15 12:22:59;;;;;;;;;;;23.90;72.80;;;;;;5084700;28;19962;-39
2023/07/15 12:25:25;;;;;;;;;;;23.80;72.70;;;;;;5084873;28;20007;-38
2023/07/15 12:27:51;;;;;;;;;;;23.80;72.60;;;;;;5084157;28;19939;-39
2023/07/15 12:30:17;;;;;;;;;;;23.90;72.50;;;;;;5084258;28;19919;-39
2023/07/15 12:32:43;;;;;;;;;;;23.80;72.40;;;;;;5083901;28;19912;-39
2023/07/15 12:35:09;;;;;;;;;;;23.90;72.50;;;;;;5084644;28;19908;-39
2023/07/15 12:37:36;;;;;;;;;;;23.90;72.50;;;;;;5083542;28;19908;-39
2023/07/15 12:40:03;;;;;;;;;;;23.80;72.40;;;;;;5084349;28;20007;-38
2023/07/15 12:42:29;;;;;;;;;;;23.90;72.50;;;;;;5083928;28;19912;-39
2023/07/15 12:44:55;;;;;;;;;;;23.90;72.50;;;;;;5080688;28;19918;-39
2023/07/15 12:47:21;;;;;;;;;;;23.80;72.70;;;;;;5084084;28;20022;-39
2023/07/15 12:49:47;;;;;;;;;;;23.90;72.90;;;;;;5083964;28;19916;-39
2023/07/15 12:52:13;;;;;;;;;;;23.90;73.20;;;;;;5084349;28;19919;-39
2023/07/15 12:54:39;;;;;;;;;;;23.90;73.30;;;;;;5083998;28;19908;-38
2023/07/15 12:57:05;;;;;;;;;;;23.90;73.20;;;;;;5083975;28;19995;-39
2023/07/15 12:59:31;;;;;;;;;;;23.90;73.30;;;;;;5083662;28;19966;-39
2023/07/15 13:01:56;;;;;;;;;;;23.90;73.10;;;;;;5084134;28;19920;-39
2023/07/15 13:04:22;;;;;;;;;;;23.90;73.10;;;;;;5084115;28;19912;-39
2023/07/15 13:06:48;;;;;;;;;;;23.90;73.00;;;;;;5083242;28;19916;-43
2023/07/15 13:09:14;;;;;;;;;;;23.90;73.10;;;;;;5083817;28;19954;-39
2023/07/15 13:11:40;;;;;;;;;;;23.90;73.00;;;;;;5082881;28;19912;-39
2023/07/15 13:14:06;;;;;;;;;;;23.90;73.10;;;;;;5084051;28;19915;-39
2023/07/15 13:16:32;;;;;;;;;;;23.90;73.00;;;;;;5083572;28;19930;-39
2023/07/15 13:18:58;;;;;;;;;;;23.90;72.90;;;;;;5080801;28;19912;-39
2023/07/15 13:21:24;;;;;;;;;;;23.90;72.90;;;;;;5083701;28;19916;-39
2023/07/15 13:23:49;;;;;;;;;;;24.00;73.10;;;;;;5083271;28;19947;-39
2023/07/15 13:26:15;;;;;;;;;;;24.00;73.10;;;;;;5083613;28;19990;-39
2023/07/15 13:28:41;;;;;;;;;;;24.00;73.20;;;;;;5082956;28;19908;-39
2023/07/15 13:31:07;;;;;;;;;;;24.00;73.30;;;;;;5079885;28;19917;-39
2023/07/15 13:33:33;;;;;;;;;;;24.00;73.20;;;;;;5083144;28;19920;-39
2023/07/15 13:35:59;;;;;;;;;;;24.00;73.40;;;;;;5082541;28;19944;-38
2023/07/15 13:38:25;;;;;;;;;;;24.00;73.40;;;;;;5083094;28;19912;-39
2023/07/15 13:40:50;;;;;;;;;;;24.00;73.30;;;;;;5082803;28;19920;-39
2023/07/15 13:43:16;;;;;;;;;;;24.00;73.20;;;;;;5083518;28;20292;-39
2023/07/15 13:45:42;;;;;;;;;;;24.00;73.30;;;;;;5082999;28;19912;-39
2023/07/15 13:48:08;;;;;;;;;;;24.10;73.30;;;;;;5082797;28;19993;-39
2023/07/15 13:50:34;;;;;;;;;;;24.10;73.50;;;;;;5082660;28;19912;-39
2023/07/15 13:53:00;;;;;;;;;;;24.10;73.40;;;;;;5081058;28;19930;-39
2023/07/15 13:55:25;;;;;;;;;;;24.10;73.60;;;;;;5083269;28;19979;-39
2023/07/15 13:57:51;;;;;;;;;;;24.10;73.80;;;;;;5082849;28;19938;-39
2023/07/15 14:00:17;;;;;;;;;;;24.10;73.80;;;;;;5081470;28;19920;-39
2023/07/15 14:02:43;;;;;;;;;;;24.10;74.00;;;;;;5082316;28;19912;-39
2023/07/15 14:05:09;;;;;;;;;;;24.20;74.20;;;;;;5082581;28;19915;-39
2023/07/15 14:07:35;;;;;;;;;;;24.20;74.30;;;;;;5082403;28;19920;-39
2023/07/15 14:10:01;;;;;;;;;;;24.20;74.30;;;;;;5081760;28;19915;-42
2023/07/15 14:12:27;;;;;;;;;;;24.20;74.20;;;;;;5082700;28;19954;-39